createdAt,value
2023-01-01T00:03:03.545Z,15.34
2023-01-01T00:08:05.231Z,15.32
2023-01-01T00:13:06.941Z,15.23
2023-01-01T00:18:08.273Z,15.19
2023-01-01T00:23:09.577Z,15.15
2023-01-01T00:28:10.958Z,15.12
2023-01-01T00:33:12.323Z,15.15
2023-01-01T00:38:13.854Z,15.15
2023-01-01T00:43:15.157Z,15.14
2023-01-01T00:48:16.484Z,15.14
2023-01-01T00:53:18.232Z,15.12
2023-01-01T00:58:19.815Z,15.13
2023-01-01T01:03:30.524Z,15.16
2023-01-01T01:08:33.013Z,15.18
2023-01-01T01:13:34.556Z,15.18
2023-01-01T01:18:36.415Z,15.08
2023-01-01T01:23:37.776Z,14.97
2023-01-01T01:28:43.791Z,14.88
2023-01-01T01:33:49.228Z,14.79
2023-01-01T01:38:50.645Z,14.75
2023-01-01T01:43:57.148Z,14.79
2023-01-01T01:49:01.341Z,14.81
2023-01-01T01:54:05.401Z,14.79
2023-01-01T01:59:06.842Z,14.74
2023-01-01T02:04:08.291Z,14.69
2023-01-01T02:09:09.788Z,14.67
2023-01-01T02:14:11.145Z,14.67
2023-01-01T02:19:31.429Z,14.68
2023-01-01T02:24:41.780Z,14.62
2023-01-01T02:29:49.953Z,14.60
2023-01-01T02:34:51.246Z,14.59
2023-01-01T02:39:57.589Z,14.56
2023-01-01T02:44:59.691Z,14.54
2023-01-01T02:50:09.952Z,14.51
2023-01-01T02:55:18.279Z,14.48
2023-01-01T03:00:24.378Z,14.47
2023-01-01T03:05:31.334Z,14.46
2023-01-01T03:10:38.700Z,14.46
2023-01-01T03:15:49.396Z,14.47
2023-01-01T03:20:51.737Z,14.45
2023-01-01T03:25:55.521Z,14.44
2023-01-01T03:30:57.452Z,14.43
2023-01-01T03:36:21.417Z,14.44
2023-01-01T03:41:27.151Z,14.43
2023-01-01T03:46:30.803Z,14.42
2023-01-01T03:51:50.697Z,14.40
2023-01-01T03:56:57.144Z,14.39
2023-01-01T04:02:02.179Z,14.39
2023-01-01T04:07:14.548Z,14.35
2023-01-01T04:12:18.006Z,14.36
2023-01-01T04:17:19.547Z,14.29
2023-01-01T04:22:23.137Z,14.24
2023-01-01T04:27:24.541Z,14.22
2023-01-01T04:32:25.853Z,14.24
2023-01-01T04:37:27.169Z,14.21
2023-01-01T04:42:28.508Z,14.19
2023-01-01T04:47:30.099Z,14.16
2023-01-01T04:52:31.402Z,14.05
2023-01-01T04:57:33.044Z,14.01
2023-01-01T05:02:34.440Z,14.08
2023-01-01T05:07:35.924Z,14.14
2023-01-01T05:12:37.231Z,14.17
2023-01-01T05:17:38.540Z,14.22
2023-01-01T05:22:39.868Z,14.24
2023-01-01T05:27:41.316Z,14.22
2023-01-01T05:32:42.753Z,14.22
2023-01-01T05:37:44.155Z,14.22
2023-01-01T05:42:46.800Z,14.21
2023-01-01T05:47:48.110Z,14.22
2023-01-01T05:52:49.521Z,14.24
2023-01-01T05:57:50.862Z,14.21
2023-01-01T06:02:52.340Z,14.22
2023-01-01T06:07:53.706Z,14.21
2023-01-01T06:12:58.464Z,14.18
2023-01-01T06:17:59.768Z,14.15
2023-01-01T06:23:01.078Z,14.14
2023-01-01T06:28:02.417Z,14.09
2023-01-01T06:33:04.233Z,13.98
2023-01-01T06:38:05.614Z,14.01
2023-01-01T06:43:06.997Z,13.98
2023-01-01T06:48:08.310Z,13.98
2023-01-01T06:53:09.667Z,13.99
2023-01-01T06:58:10.982Z,13.97
2023-01-01T07:03:12.465Z,13.90
2023-01-01T07:08:13.880Z,13.83
2023-01-01T07:13:15.232Z,13.75
2023-01-01T07:18:18.313Z,13.72
2023-01-01T07:23:19.750Z,13.71
2023-01-01T07:28:21.882Z,13.69
2023-01-01T07:33:24.124Z,13.67
2023-01-01T07:38:25.446Z,13.74
2023-01-01T07:43:26.754Z,13.82
2023-01-01T07:48:28.419Z,13.88
2023-01-01T07:53:29.739Z,13.98
2023-01-01T07:58:31.084Z,14.05
2023-01-01T08:03:32.440Z,14.08
2023-01-01T08:08:33.815Z,14.15
2023-01-01T08:13:35.243Z,14.21
2023-01-01T08:18:36.593Z,14.27
2023-01-01T08:23:37.930Z,14.33
2023-01-01T08:28:39.339Z,14.40
2023-01-01T08:33:40.651Z,14.45
2023-01-01T08:38:42.369Z,14.50
2023-01-01T08:43:43.686Z,14.60
2023-01-01T08:48:45.056Z,14.65
2023-01-01T08:53:50.906Z,14.70
2023-01-01T08:58:55.150Z,14.82
2023-01-01T09:03:58.786Z,14.90
2023-01-01T09:09:00.094Z,14.91
2023-01-01T09:14:01.427Z,14.91
2023-01-01T09:19:02.744Z,14.89
2023-01-01T09:24:04.377Z,14.94
2023-01-01T09:29:05.728Z,15.00
2023-01-01T09:34:07.038Z,15.06
2023-01-01T09:39:10.667Z,15.07
2023-01-01T09:44:21.960Z,15.07
2023-01-01T09:49:31.787Z,15.07
2023-01-01T09:54:51.933Z,15.08
2023-01-01T09:59:53.456Z,15.22
2023-01-01T10:04:57.629Z,15.45
2023-01-01T10:10:17.755Z,15.55
2023-01-01T10:15:23.911Z,15.47
2023-01-01T10:20:36.231Z,15.46
2023-01-01T10:25:39.731Z,15.52
2023-01-01T10:30:41.498Z,15.61
2023-01-01T10:35:48.694Z,15.66
2023-01-01T10:40:51.831Z,15.70
2023-01-01T10:45:54.532Z,15.79
2023-01-01T10:50:55.887Z,15.84
2023-01-01T10:55:59.520Z,15.92
2023-01-01T11:01:02.114Z,16.02
2023-01-01T11:06:03.485Z,16.06
2023-01-01T11:11:04.999Z,16.04
2023-01-01T11:16:10.464Z,16.10
2023-01-01T11:21:19.032Z,16.25
2023-01-01T11:26:24.469Z,16.36
2023-01-01T11:31:28.754Z,16.36
2023-01-01T11:36:32.800Z,16.35
2023-01-01T11:41:41.298Z,16.41
2023-01-01T11:46:45.941Z,16.43
2023-01-01T11:51:47.257Z,16.43
2023-01-01T11:56:51.934Z,16.46
2023-01-01T12:02:02.434Z,16.51
2023-01-01T12:07:03.751Z,16.55
2023-01-01T12:12:05.542Z,16.55
2023-01-01T12:17:16.493Z,16.60
2023-01-01T12:22:18.751Z,16.68
2023-01-01T12:27:38.896Z,16.74
2023-01-01T12:32:49.924Z,16.74
2023-01-01T12:37:54.224Z,16.62
2023-01-01T12:43:12.259Z,16.53
2023-01-01T12:48:27.869Z,16.51
2023-01-01T12:53:29.165Z,16.52
2023-01-01T12:58:39.787Z,16.48
2023-01-01T13:03:49.249Z,16.43
2023-01-01T13:08:52.229Z,16.37
2023-01-01T13:13:53.945Z,16.28
2023-01-01T13:19:00.732Z,16.23
2023-01-01T13:24:05.625Z,16.18
2023-01-01T13:29:12.738Z,16.15
2023-01-01T13:34:31.738Z,16.07
2023-01-01T13:39:53.010Z,16.10
2023-01-01T13:44:54.461Z,16.14
2023-01-01T13:50:18.602Z,16.13
2023-01-01T13:55:23.011Z,16.05
2023-01-01T14:00:39.886Z,15.95
2023-01-01T14:05:44.027Z,15.82
2023-01-01T14:10:49.821Z,15.66
2023-01-01T14:15:53.318Z,15.50
2023-01-01T14:20:54.805Z,15.37
2023-01-01T14:25:56.548Z,15.29
2023-01-01T14:31:02.169Z,15.19
2023-01-01T14:36:17.388Z,15.12
2023-01-01T14:41:29.259Z,14.95
2023-01-01T14:46:30.898Z,14.79
2023-01-01T14:51:32.742Z,14.70
2023-01-01T14:56:35.709Z,14.64
2023-01-01T15:01:37.207Z,14.58
2023-01-01T15:06:41.974Z,14.54
2023-01-01T15:11:44.606Z,14.47
2023-01-01T15:16:59.085Z,14.39
2023-01-01T15:22:01.021Z,14.30
2023-01-01T15:27:03.971Z,14.29
2023-01-01T15:32:09.355Z,14.30
2023-01-01T15:37:10.710Z,14.24
2023-01-01T15:42:30.744Z,14.18
2023-01-01T15:47:37.623Z,14.18
2023-01-01T15:52:42.422Z,14.25
2023-01-01T15:57:48.980Z,14.27
2023-01-01T16:02:52.828Z,14.31
2023-01-01T16:08:04.476Z,14.32
2023-01-01T16:13:05.785Z,14.29
2023-01-01T16:18:07.302Z,14.20
2023-01-01T16:23:11.601Z,14.10
2023-01-01T16:28:13.979Z,13.98
2023-01-01T16:33:19.232Z,13.88
2023-01-01T16:38:20.570Z,13.86
2023-01-01T16:43:21.952Z,13.85
2023-01-01T16:48:23.386Z,13.83
2023-01-01T16:53:24.690Z,13.79
2023-01-01T17:03:47.359Z,13.79
2023-01-01T17:08:48.690Z,13.81
2023-01-01T17:13:50.287Z,13.83
2023-01-01T17:24:14.159Z,13.98
2023-01-01T17:29:15.578Z,14.06
2023-01-01T17:34:16.973Z,14.12
2023-01-01T17:39:18.313Z,14.11
2023-01-01T17:44:19.714Z,14.10
2023-01-01T17:49:21.045Z,14.14
2023-01-01T17:54:22.448Z,14.14
2023-01-01T17:59:24.348Z,14.03
2023-01-01T18:04:25.752Z,13.97
2023-01-01T18:09:27.078Z,13.92
2023-01-01T18:14:28.389Z,13.81
2023-01-01T18:19:30.576Z,13.76
2023-01-01T18:24:31.905Z,13.79
2023-01-01T18:29:33.473Z,13.86
2023-01-01T18:34:34.806Z,13.98
2023-01-01T18:39:41.492Z,14.06
2023-01-01T18:44:43.428Z,14.08
2023-01-01T18:49:49.357Z,14.13
2023-01-01T18:54:51.957Z,14.18
2023-01-01T18:59:54.617Z,14.26
2023-01-01T19:04:57.636Z,14.31
2023-01-01T19:09:59.341Z,14.35
2023-01-01T19:15:13.540Z,14.36
2023-01-01T19:20:17.219Z,14.40
2023-01-01T19:25:38.906Z,14.42
2023-01-01T19:30:40.246Z,14.46
2023-01-01T19:35:41.571Z,14.50
2023-01-01T19:40:42.901Z,14.49
2023-01-01T19:45:44.236Z,14.48
2023-01-01T19:50:46.460Z,14.49
2023-01-01T19:55:47.884Z,14.52
2023-01-01T20:00:49.742Z,14.54
2023-01-01T20:05:51.154Z,14.59
2023-01-01T20:10:52.851Z,14.64
2023-01-01T20:15:54.323Z,14.69
2023-01-01T20:21:14.498Z,14.71
2023-01-01T20:26:15.856Z,14.70
2023-01-01T20:31:17.245Z,14.69
2023-01-01T20:36:37.333Z,14.66
2023-01-01T20:41:38.710Z,14.64
2023-01-01T20:46:41.110Z,14.65
2023-01-01T20:51:43.109Z,14.65
2023-01-01T20:56:44.533Z,14.64
2023-01-01T21:01:46.407Z,14.63
2023-01-01T21:06:47.874Z,14.59
2023-01-01T21:11:49.782Z,14.57
2023-01-01T21:16:51.812Z,14.60
2023-01-01T21:21:54.951Z,14.61
2023-01-01T21:27:01.896Z,14.60
2023-01-01T21:32:23.576Z,14.59
2023-01-01T21:37:50.707Z,14.60
2023-01-01T21:43:03.021Z,14.58
2023-01-01T21:48:16.628Z,14.51
2023-01-01T21:53:20.302Z,14.45
2023-01-01T21:58:44.835Z,14.35
2023-01-01T22:03:48.683Z,14.24
2023-01-01T22:08:50.166Z,14.28
2023-01-01T22:13:51.640Z,14.33
2023-01-01T22:18:55.539Z,14.34
2023-01-01T22:23:59.425Z,14.33
2023-01-01T22:29:03.172Z,14.38
2023-01-01T22:34:15.764Z,14.45
2023-01-01T22:39:34.915Z,14.52
2023-01-01T22:44:36.885Z,14.59
2023-01-01T22:49:39.862Z,14.64
2023-01-01T22:54:41.420Z,14.67
2023-01-01T22:59:43.076Z,14.71
2023-01-01T23:04:46.471Z,14.73
2023-01-01T23:09:55.213Z,14.74
2023-01-01T23:15:18.267Z,14.75
2023-01-01T23:20:26.327Z,14.75
2023-01-01T23:25:28.760Z,14.78
2023-01-01T23:30:30.380Z,14.81
2023-01-01T23:35:34.224Z,14.83
2023-01-01T23:40:35.646Z,14.87
2023-01-01T23:45:40.011Z,14.97
2023-01-01T23:50:45.286Z,15.03
2023-01-01T23:55:51.821Z,15.06
